sensor_id;sensor_type;location;lat;lon;timestamp;temperature;humidity
20735;DHT22;10528;52.124;5.196;2023-07-08T00:00:54;21.30;99.90
20735;DHT22;10528;52.124;5.196;2023-07-08T00:03:21;21.30;99.90
20735;DHT22;10528;52.124;5.196;2023-07-08T00:05:53;21.20;99.90
20735;DHT22;10528;52.124;5.196;2023-07-08T00:08:22;21.20;99.90
20735;DHT22;10528;52.124;5.196;2023-07-08T00:10:49;21.10;99.90
20735;DHT22;10528;52.124;5.196;2023-07-08T00:13:15;21.00;99.90
20735;DHT22;10528;52.124;5.196;2023-07-08T00:15:43;21.10;99.90
20735;DHT22;10528;52.124;5.196;2023-07-08T00:18:15;21.00;99.90
20735;DHT22;10528;52.124;5.196;2023-07-08T00:20:48;20.90;99.90
20735;DHT22;10528;52.124;5.196;2023-07-08T00:23:17;20.90;99.90
20735;DHT22;10528;52.124;5.196;2023-07-08T00:25:48;20.80;99.90
20735;DHT22;10528;52.124;5.196;2023-07-08T00:28:18;20.80;99.90
20735;DHT22;10528;52.124;5.196;2023-07-08T00:30:47;20.70;99.90
20735;DHT22;10528;52.124;5.196;2023-07-08T00:33:15;20.70;99.90
20735;DHT22;10528;52.124;5.196;2023-07-08T00:35:44;20.60;99.90
20735;DHT22;10528;52.124;5.196;2023-07-08T00:38:26;20.60;99.90
20735;DHT22;10528;52.124;5.196;2023-07-08T00:43:48;20.50;99.90
20735;DHT22;10528;52.124;5.196;2023-07-08T00:51:36;20.50;99.90
20735;DHT22;10528;52.124;5.196;2023-07-08T00:54:15;20.50;99.90
20735;DHT22;10528;52.124;5.196;2023-07-08T00:59:33;20.50;99.90
20735;DHT22;10528;52.124;5.196;2023-07-08T01:02:09;20.50;99.90
20735;DHT22;10528;52.124;5.196;2023-07-08T01:04:49;20.40;99.90
20735;DHT22;10528;52.124;5.196;2023-07-08T01:07:22;20.30;99.90
20735;DHT22;10528;52.124;5.196;2023-07-08T01:10:02;20.20;99.90
20735;DHT22;10528;52.124;5.196;2023-07-08T01:12:37;20.20;99.90
20735;DHT22;10528;52.124;5.196;2023-07-08T01:15:11;20.10;99.90
20735;DHT22;10528;52.124;5.196;2023-07-08T01:17:39;20.10;99.90
20735;DHT22;10528;52.124;5.196;2023-07-08T01:20:07;20.00;99.90
20735;DHT22;10528;52.124;5.196;2023-07-08T01:22:44;20.00;99.90
20735;DHT22;10528;52.124;5.196;2023-07-08T01:25:12;20.00;99.90
20735;DHT22;10528;52.124;5.196;2023-07-08T01:27:42;19.90;99.90
20735;DHT22;10528;52.124;5.196;2023-07-08T01:30:14;19.90;99.90
20735;DHT22;10528;52.124;5.196;2023-07-08T01:32:49;19.90;99.90
20735;DHT22;10528;52.124;5.196;2023-07-08T01:35:22;19.70;99.90
20735;DHT22;10528;52.124;5.196;2023-07-08T01:37:52;19.70;99.90
20735;DHT22;10528;52.124;5.196;2023-07-08T01:42:54;19.70;99.90
20735;DHT22;10528;52.124;5.196;2023-07-08T01:45:23;19.60;99.90
20735;DHT22;10528;52.124;5.196;2023-07-08T01:48:15;19.60;99.90
20735;DHT22;10528;52.124;5.196;2023-07-08T01:53:20;19.60;99.90
20735;DHT22;10528;52.124;5.196;2023-07-08T01:55:55;19.60;99.90
20735;DHT22;10528;52.124;5.196;2023-07-08T01:58:22;19.60;99.90
20735;DHT22;10528;52.124;5.196;2023-07-08T02:00:50;19.60;99.90
20735;DHT22;10528;52.124;5.196;2023-07-08T02:03:18;19.50;99.90
20735;DHT22;10528;52.124;5.196;2023-07-08T02:05:45;19.40;99.90
20735;DHT22;10528;52.124;5.196;2023-07-08T02:08:12;19.40;99.90
20735;DHT22;10528;52.124;5.196;2023-07-08T02:10:41;19.40;99.90
20735;DHT22;10528;52.124;5.196;2023-07-08T02:13:09;19.30;99.90
20735;DHT22;10528;52.124;5.196;2023-07-08T02:15:36;19.30;99.90
20735;DHT22;10528;52.124;5.196;2023-07-08T02:18:02;19.20;99.90
20735;DHT22;10528;52.124;5.196;2023-07-08T02:20:29;19.20;99.90
20735;DHT22;10528;52.124;5.196;2023-07-08T02:22:56;19.10;99.90
20735;DHT22;10528;52.124;5.196;2023-07-08T02:25:24;19.10;99.90
20735;DHT22;10528;52.124;5.196;2023-07-08T02:27:52;19.10;99.90
20735;DHT22;10528;52.124;5.196;2023-07-08T02:30:27;19.10;99.90
20735;DHT22;10528;52.124;5.196;2023-07-08T02:32:54;19.10;99.90
20735;DHT22;10528;52.124;5.196;2023-07-08T02:35:30;19.00;99.90
20735;DHT22;10528;52.124;5.196;2023-07-08T02:37:57;19.00;99.90
20735;DHT22;10528;52.124;5.196;2023-07-08T02:40:25;19.00;99.90
20735;DHT22;10528;52.124;5.196;2023-07-08T02:42:53;18.90;99.90
20735;DHT22;10528;52.124;5.196;2023-07-08T02:45:20;19.00;99.90
20735;DHT22;10528;52.124;5.196;2023-07-08T02:47:47;19.00;99.90
20735;DHT22;10528;52.124;5.196;2023-07-08T02:50:14;19.00;99.90
20735;DHT22;10528;52.124;5.196;2023-07-08T02:52:41;18.90;99.90
20735;DHT22;10528;52.124;5.196;2023-07-08T02:55:08;18.80;99.90
20735;DHT22;10528;52.124;5.196;2023-07-08T02:57:35;18.80;99.90
20735;DHT22;10528;52.124;5.196;2023-07-08T03:00:03;18.80;99.90
20735;DHT22;10528;52.124;5.196;2023-07-08T03:02:31;18.90;99.90
20735;DHT22;10528;52.124;5.196;2023-07-08T03:04:58;18.80;99.90
20735;DHT22;10528;52.124;5.196;2023-07-08T03:07:27;18.80;99.90
20735;DHT22;10528;52.124;5.196;2023-07-08T03:09:54;18.80;99.90
20735;DHT22;10528;52.124;5.196;2023-07-08T03:12:22;18.80;99.90
20735;DHT22;10528;52.124;5.196;2023-07-08T03:14:49;18.80;99.90
20735;DHT22;10528;52.124;5.196;2023-07-08T03:17:16;18.70;99.90
20735;DHT22;10528;52.124;5.196;2023-07-08T03:19:45;18.70;99.90
20735;DHT22;10528;52.124;5.196;2023-07-08T03:22:11;18.70;99.90
20735;DHT22;10528;52.124;5.196;2023-07-08T03:24:39;18.70;99.90
20735;DHT22;10528;52.124;5.196;2023-07-08T03:27:16;18.60;99.90
20735;DHT22;10528;52.124;5.196;2023-07-08T03:29:44;18.70;99.90
20735;DHT22;10528;52.124;5.196;2023-07-08T03:32:12;18.70;99.90
20735;DHT22;10528;52.124;5.196;2023-07-08T03:34:40;18.60;99.90
20735;DHT22;10528;52.124;5.196;2023-07-08T03:37:09;18.60;99.90
20735;DHT22;10528;52.124;5.196;2023-07-08T03:39:36;18.60;99.90
20735;DHT22;10528;52.124;5.196;2023-07-08T03:42:03;18.60;99.90
20735;DHT22;10528;52.124;5.196;2023-07-08T03:44:30;18.60;99.90
20735;DHT22;10528;52.124;5.196;2023-07-08T03:46:58;18.60;99.90
20735;DHT22;10528;52.124;5.196;2023-07-08T03:49:26;18.80;99.90
20735;DHT22;10528;52.124;5.196;2023-07-08T03:51:54;18.70;99.90
20735;DHT22;10528;52.124;5.196;2023-07-08T03:54:23;18.70;99.90
20735;DHT22;10528;52.124;5.196;2023-07-08T03:56:54;18.70;99.90
20735;DHT22;10528;52.124;5.196;2023-07-08T03:59:23;18.70;99.90
20735;DHT22;10528;52.124;5.196;2023-07-08T04:01:52;18.70;99.90
20735;DHT22;10528;52.124;5.196;2023-07-08T04:04:19;18.80;99.90
20735;DHT22;10528;52.124;5.196;2023-07-08T04:06:46;18.80;99.90
20735;DHT22;10528;52.124;5.196;2023-07-08T04:09:13;18.80;99.90
20735;DHT22;10528;52.124;5.196;2023-07-08T04:11:40;18.80;99.90
20735;DHT22;10528;52.124;5.196;2023-07-08T04:14:10;18.80;99.90
20735;DHT22;10528;52.124;5.196;2023-07-08T04:16:55;18.90;99.90
20735;DHT22;10528;52.124;5.196;2023-07-08T04:19:26;18.80;99.90
20735;DHT22;10528;52.124;5.196;2023-07-08T04:21:54;18.90;99.90
20735;DHT22;10528;52.124;5.196;2023-07-08T04:24:21;18.90;99.90
20735;DHT22;10528;52.124;5.196;2023-07-08T04:26:48;18.90;99.90
20735;DHT22;10528;52.124;5.196;2023-07-08T04:29:19;18.90;99.90
20735;DHT22;10528;52.124;5.196;2023-07-08T04:31:47;18.90;99.90
20735;DHT22;10528;52.124;5.196;2023-07-08T04:34:15;19.00;99.90
20735;DHT22;10528;52.124;5.196;2023-07-08T04:36:43;19.10;99.90
20735;DHT22;10528;52.124;5.196;2023-07-08T04:39:11;19.10;99.90
20735;DHT22;10528;52.124;5.196;2023-07-08T04:41:39;19.20;99.90
20735;DHT22;10528;52.124;5.196;2023-07-08T04:44:08;19.20;99.90
20735;DHT22;10528;52.124;5.196;2023-07-08T04:46:50;19.20;99.90
20735;DHT22;10528;52.124;5.196;2023-07-08T04:49:22;19.30;99.90
20735;DHT22;10528;52.124;5.196;2023-07-08T04:51:50;19.30;99.90
20735;DHT22;10528;52.124;5.196;2023-07-08T04:54:21;19.30;99.90
20735;DHT22;10528;52.124;5.196;2023-07-08T04:56:48;19.50;99.90
20735;DHT22;10528;52.124;5.196;2023-07-08T04:59:21;20.10;99.90
20735;DHT22;10528;52.124;5.196;2023-07-08T05:01:50;20.60;99.90
20735;DHT22;10528;52.124;5.196;2023-07-08T05:04:20;21.10;99.90
20735;DHT22;10528;52.124;5.196;2023-07-08T05:06:49;21.20;99.90
20735;DHT22;10528;52.124;5.196;2023-07-08T05:09:16;21.40;99.90
20735;DHT22;10528;52.124;5.196;2023-07-08T05:11:44;21.70;99.90
20735;DHT22;10528;52.124;5.196;2023-07-08T05:14:12;21.60;99.90
20735;DHT22;10528;52.124;5.196;2023-07-08T05:16:40;21.50;99.90
20735;DHT22;10528;52.124;5.196;2023-07-08T05:19:07;21.90;99.90
20735;DHT22;10528;52.124;5.196;2023-07-08T05:21:35;22.10;99.90
20735;DHT22;10528;52.124;5.196;2023-07-08T05:24:03;21.80;99.90
20735;DHT22;10528;52.124;5.196;2023-07-08T05:26:32;21.50;99.90
20735;DHT22;10528;52.124;5.196;2023-07-08T05:28:59;21.80;99.90
20735;DHT22;10528;52.124;5.196;2023-07-08T05:31:27;22.10;99.90
20735;DHT22;10528;52.124;5.196;2023-07-08T05:34:12;22.10;99.90
20735;DHT22;10528;52.124;5.196;2023-07-08T05:36:40;21.90;99.90
20735;DHT22;10528;52.124;5.196;2023-07-08T05:39:07;22.20;99.90
20735;DHT22;10528;52.124;5.196;2023-07-08T05:41:34;22.50;99.90
20735;DHT22;10528;52.124;5.196;2023-07-08T05:44:01;22.70;99.90
20735;DHT22;10528;52.124;5.196;2023-07-08T05:46:28;23.20;99.90
20735;DHT22;10528;52.124;5.196;2023-07-08T05:48:55;23.30;99.90
20735;DHT22;10528;52.124;5.196;2023-07-08T05:51:24;23.00;99.90
20735;DHT22;10528;52.124;5.196;2023-07-08T05:53:51;23.30;99.90
20735;DHT22;10528;52.124;5.196;2023-07-08T05:56:18;23.90;99.90
20735;DHT22;10528;52.124;5.196;2023-07-08T05:58:45;23.70;99.90
20735;DHT22;10528;52.124;5.196;2023-07-08T06:01:12;23.90;99.90
20735;DHT22;10528;52.124;5.196;2023-07-08T06:03:39;24.60;99.90
20735;DHT22;10528;52.124;5.196;2023-07-08T06:06:06;24.90;99.90
20735;DHT22;10528;52.124;5.196;2023-07-08T06:08:35;25.10;99.90
20735;DHT22;10528;52.124;5.196;2023-07-08T06:11:02;24.70;99.90
20735;DHT22;10528;52.124;5.196;2023-07-08T06:13:29;25.30;99.90
20735;DHT22;10528;52.124;5.196;2023-07-08T06:15:56;25.10;99.90
20735;DHT22;10528;52.124;5.196;2023-07-08T06:18:23;24.80;99.90
20735;DHT22;10528;52.124;5.196;2023-07-08T06:20:55;25.30;99.90
20735;DHT22;10528;52.124;5.196;2023-07-08T06:23:24;25.80;99.90
20735;DHT22;10528;52.124;5.196;2023-07-08T06:25:52;26.10;99.90
20735;DHT22;10528;52.124;5.196;2023-07-08T06:28:19;26.40;99.90
20735;DHT22;10528;52.124;5.196;2023-07-08T06:30:47;26.30;99.90
20735;DHT22;10528;52.124;5.196;2023-07-08T06:33:15;25.30;99.90
20735;DHT22;10528;52.124;5.196;2023-07-08T06:35:42;26.00;99.90
20735;DHT22;10528;52.124;5.196;2023-07-08T06:38:10;26.30;99.90
20735;DHT22;10528;52.124;5.196;2023-07-08T06:40:37;27.20;99.90
20735;DHT22;10528;52.124;5.196;2023-07-08T06:43:04;27.00;99.90
20735;DHT22;10528;52.124;5.196;2023-07-08T06:45:38;27.50;99.90
20735;DHT22;10528;52.124;5.196;2023-07-08T06:48:05;27.50;99.90
20735;DHT22;10528;52.124;5.196;2023-07-08T06:50:32;28.40;99.90
20735;DHT22;10528;52.124;5.196;2023-07-08T06:52:59;28.20;99.90
20735;DHT22;10528;52.124;5.196;2023-07-08T06:55:26;27.10;99.90
20735;DHT22;10528;52.124;5.196;2023-07-08T06:57:53;27.40;99.90
20735;DHT22;10528;52.124;5.196;2023-07-08T07:00:20;27.80;99.90
20735;DHT22;10528;52.124;5.196;2023-07-08T07:02:47;28.00;99.90
20735;DHT22;10528;52.124;5.196;2023-07-08T07:05:14;28.30;99.90
20735;DHT22;10528;52.124;5.196;2023-07-08T07:07:40;29.00;99.90
20735;DHT22;10528;52.124;5.196;2023-07-08T07:10:08;28.00;99.90
20735;DHT22;10528;52.124;5.196;2023-07-08T07:12:35;27.80;99.90
20735;DHT22;10528;52.124;5.196;2023-07-08T07:15:03;28.50;99.90
20735;DHT22;10528;52.124;5.196;2023-07-08T07:17:31;28.80;99.90
20735;DHT22;10528;52.124;5.196;2023-07-08T07:19:58;29.50;99.90
20735;DHT22;10528;52.124;5.196;2023-07-08T07:22:25;30.10;99.90
20735;DHT22;10528;52.124;5.196;2023-07-08T07:24:52;29.60;99.90
20735;DHT22;10528;52.124;5.196;2023-07-08T07:27:19;29.30;99.90
20735;DHT22;10528;52.124;5.196;2023-07-08T07:29:48;29.30;99.90
20735;DHT22;10528;52.124;5.196;2023-07-08T07:32:18;29.40;99.90
20735;DHT22;10528;52.124;5.196;2023-07-08T07:34:48;29.20;99.90
20735;DHT22;10528;52.124;5.196;2023-07-08T07:37:19;29.40;99.90
20735;DHT22;10528;52.124;5.196;2023-07-08T07:39:47;29.80;99.90
20735;DHT22;10528;52.124;5.196;2023-07-08T07:42:16;30.50;99.90
20735;DHT22;10528;52.124;5.196;2023-07-08T07:44:45;30.20;99.90
20735;DHT22;10528;52.124;5.196;2023-07-08T07:47:12;30.00;99.90
20735;DHT22;10528;52.124;5.196;2023-07-08T07:49:39;29.70;99.90
20735;DHT22;10528;52.124;5.196;2023-07-08T07:52:07;30.10;99.90
20735;DHT22;10528;52.124;5.196;2023-07-08T07:54:34;29.90;99.90
20735;DHT22;10528;52.124;5.196;2023-07-08T07:57:01;30.90;99.90
20735;DHT22;10528;52.124;5.196;2023-07-08T07:59:28;30.20;99.90
20735;DHT22;10528;52.124;5.196;2023-07-08T08:01:55;30.20;99.90
20735;DHT22;10528;52.124;5.196;2023-07-08T08:04:22;30.60;99.90
20735;DHT22;10528;52.124;5.196;2023-07-08T08:06:49;31.00;99.90
20735;DHT22;10528;52.124;5.196;2023-07-08T08:09:16;31.20;99.90
20735;DHT22;10528;52.124;5.196;2023-07-08T08:11:43;31.70;99.90
20735;DHT22;10528;52.124;5.196;2023-07-08T08:14:10;32.30;99.90
20735;DHT22;10528;52.124;5.196;2023-07-08T08:16:37;32.30;99.90
20735;DHT22;10528;52.124;5.196;2023-07-08T08:19:04;31.90;99.90
20735;DHT22;10528;52.124;5.196;2023-07-08T08:21:34;32.40;99.90
20735;DHT22;10528;52.124;5.196;2023-07-08T08:24:01;31.80;99.90
20735;DHT22;10528;52.124;5.196;2023-07-08T08:26:28;31.20;99.90
20735;DHT22;10528;52.124;5.196;2023-07-08T08:28:56;31.60;99.90
20735;DHT22;10528;52.124;5.196;2023-07-08T08:31:23;31.10;99.90
20735;DHT22;10528;52.124;5.196;2023-07-08T08:33:53;30.50;99.90
20735;DHT22;10528;52.124;5.196;2023-07-08T08:36:20;30.90;99.90
20735;DHT22;10528;52.124;5.196;2023-07-08T08:38:48;31.00;99.90
20735;DHT22;10528;52.124;5.196;2023-07-08T08:41:21;31.20;99.90
20735;DHT22;10528;52.124;5.196;2023-07-08T08:43:57;31.00;99.90
20735;DHT22;10528;52.124;5.196;2023-07-08T08:51:48;31.00;99.90
20735;DHT22;10528;52.124;5.196;2023-07-08T08:54:16;30.90;99.90
20735;DHT22;10528;52.124;5.196;2023-07-08T08:57:41;31.10;99.90
20735;DHT22;10528;52.124;5.196;2023-07-08T08:59:55;30.80;99.90
20735;DHT22;10528;52.124;5.196;2023-07-08T09:02:41;31.30;99.90
20735;DHT22;10528;52.124;5.196;2023-07-08T09:05:18;31.10;99.90
20735;DHT22;10528;52.124;5.196;2023-07-08T09:08:13;31.00;99.90
20735;DHT22;10528;52.124;5.196;2023-07-08T09:11:18;31.30;99.90
20735;DHT22;10528;52.124;5.196;2023-07-08T09:14:27;31.20;99.90
20735;DHT22;10528;52.124;5.196;2023-07-08T09:19:47;31.50;99.90
20735;DHT22;10528;52.124;5.196;2023-07-08T09:22:25;31.60;99.90
20735;DHT22;10528;52.124;5.196;2023-07-08T09:25:20;31.50;99.90
20735;DHT22;10528;52.124;5.196;2023-07-08T09:27:51;31.40;99.90
20735;DHT22;10528;52.124;5.196;2023-07-08T09:30:23;30.90;99.90
20735;DHT22;10528;52.124;5.196;2023-07-08T09:32:55;31.40;99.90
20735;DHT22;10528;52.124;5.196;2023-07-08T09:35:26;31.10;99.90
20735;DHT22;10528;52.124;5.196;2023-07-08T09:38:13;31.00;99.90
20735;DHT22;10528;52.124;5.196;2023-07-08T09:40:50;31.00;99.90
20735;DHT22;10528;52.124;5.196;2023-07-08T09:43:35;31.00;99.90
20735;DHT22;10528;52.124;5.196;2023-07-08T09:46:05;31.40;99.90
20735;DHT22;10528;52.124;5.196;2023-07-08T09:48:38;31.30;99.90
20735;DHT22;10528;52.124;5.196;2023-07-08T09:51:05;31.30;99.90
20735;DHT22;10528;52.124;5.196;2023-07-08T09:53:38;31.20;99.90
20735;DHT22;10528;52.124;5.196;2023-07-08T09:56:08;31.20;99.90
20735;DHT22;10528;52.124;5.196;2023-07-08T09:58:40;31.10;99.90
20735;DHT22;10528;52.124;5.196;2023-07-08T10:01:20;31.50;99.90
20735;DHT22;10528;52.124;5.196;2023-07-08T10:03:50;31.90;99.90
20735;DHT22;10528;52.124;5.196;2023-07-08T10:06:25;32.00;99.90
20735;DHT22;10528;52.124;5.196;2023-07-08T10:08:55;31.60;99.90
20735;DHT22;10528;52.124;5.196;2023-07-08T10:11:31;31.90;99.90
20735;DHT22;10528;52.124;5.196;2023-07-08T10:14:11;32.20;99.90
20735;DHT22;10528;52.124;5.196;2023-07-08T10:16:49;32.40;99.20
20735;DHT22;10528;52.124;5.196;2023-07-08T10:19:18;32.00;98.70
20735;DHT22;10528;52.124;5.196;2023-07-08T10:27:30;32.20;99.60
20735;DHT22;10528;52.124;5.196;2023-07-08T10:30:30;31.90;97.80
20735;DHT22;10528;52.124;5.196;2023-07-08T10:36:53;32.40;99.20
20735;DHT22;10528;52.124;5.196;2023-07-08T10:39:51;32.30;99.00
20735;DHT22;10528;52.124;5.196;2023-07-08T10:54:20;32.20;98.10
20735;DHT22;10528;52.124;5.196;2023-07-08T10:56:54;32.10;97.40
20735;DHT22;10528;52.124;5.196;2023-07-08T11:05:18;33.00;99.60
20735;DHT22;10528;52.124;5.196;2023-07-08T11:08:26;33.00;97.70
20735;DHT22;10528;52.124;5.196;2023-07-08T11:14:16;32.70;96.70
20735;DHT22;10528;52.124;5.196;2023-07-08T11:17:14;32.50;97.00
20735;DHT22;10528;52.124;5.196;2023-07-08T11:19:58;32.60;97.20
20735;DHT22;10528;52.124;5.196;2023-07-08T11:22:50;32.50;97.60
20735;DHT22;10528;52.124;5.196;2023-07-08T11:25:24;32.70;99.30
20735;DHT22;10528;52.124;5.196;2023-07-08T11:27:56;32.80;99.50
20735;DHT22;10528;52.124;5.196;2023-07-08T11:30:29;33.00;99.40
20735;DHT22;10528;52.124;5.196;2023-07-08T11:33:03;33.10;99.00
20735;DHT22;10528;52.124;5.196;2023-07-08T11:38:09;32.90;97.50
20735;DHT22;10528;52.124;5.196;2023-07-08T11:41:13;32.90;97.00
20735;DHT22;10528;52.124;5.196;2023-07-08T11:43:57;33.10;97.60
20735;DHT22;10528;52.124;5.196;2023-07-08T11:46:27;32.80;96.40
20735;DHT22;10528;52.124;5.196;2023-07-08T11:49:12;32.80;96.50
20735;DHT22;10528;52.124;5.196;2023-07-08T11:51:44;32.90;96.60
20735;DHT22;10528;52.124;5.196;2023-07-08T11:54:26;32.80;97.30
20735;DHT22;10528;52.124;5.196;2023-07-08T11:57:15;33.10;98.10
20735;DHT22;10528;52.124;5.196;2023-07-08T12:00:19;33.30;99.40
20735;DHT22;10528;52.124;5.196;2023-07-08T12:02:55;33.30;99.90
20735;DHT22;10528;52.124;5.196;2023-07-08T12:05:37;33.20;99.30
20735;DHT22;10528;52.124;5.196;2023-07-08T12:08:17;33.40;98.60
20735;DHT22;10528;52.124;5.196;2023-07-08T12:10:50;33.30;98.70
20735;DHT22;10528;52.124;5.196;2023-07-08T12:13:21;33.30;97.50
20735;DHT22;10528;52.124;5.196;2023-07-08T12:15:51;33.40;98.20
20735;DHT22;10528;52.124;5.196;2023-07-08T12:18:25;33.50;96.50
20735;DHT22;10528;52.124;5.196;2023-07-08T12:20:59;33.60;96.70
20735;DHT22;10528;52.124;5.196;2023-07-08T12:23:29;33.70;94.70
20735;DHT22;10528;52.124;5.196;2023-07-08T12:25:57;33.50;96.30
20735;DHT22;10528;52.124;5.196;2023-07-08T12:28:25;33.40;96.60
20735;DHT22;10528;52.124;5.196;2023-07-08T12:30:52;33.40;97.40
20735;DHT22;10528;52.124;5.196;2023-07-08T12:33:28;33.30;97.60
20735;DHT22;10528;52.124;5.196;2023-07-08T12:36:01;33.00;95.20
20735;DHT22;10528;52.124;5.196;2023-07-08T12:38:37;32.90;97.40
20735;DHT22;10528;52.124;5.196;2023-07-08T12:41:18;33.00;97.50
20735;DHT22;10528;52.124;5.196;2023-07-08T12:43:47;32.80;97.30
20735;DHT22;10528;52.124;5.196;2023-07-08T12:46:17;33.10;96.20
20735;DHT22;10528;52.124;5.196;2023-07-08T12:48:47;33.40;96.50
20735;DHT22;10528;52.124;5.196;2023-07-08T12:51:18;33.30;90.60
20735;DHT22;10528;52.124;5.196;2023-07-08T12:53:50;33.20;91.10
20735;DHT22;10528;52.124;5.196;2023-07-08T12:56:20;33.30;92.80
20735;DHT22;10528;52.124;5.196;2023-07-08T12:58:51;33.20;94.30
20735;DHT22;10528;52.124;5.196;2023-07-08T13:01:26;33.30;93.40
20735;DHT22;10528;52.124;5.196;2023-07-08T13:04:01;33.50;91.00
20735;DHT22;10528;52.124;5.196;2023-07-08T13:06:32;33.40;93.70
20735;DHT22;10528;52.124;5.196;2023-07-08T13:12:04;33.50;93.00
20735;DHT22;10528;52.124;5.196;2023-07-08T13:14:39;33.50;90.20
20735;DHT22;10528;52.124;5.196;2023-07-08T13:17:13;33.40;89.30
20735;DHT22;10528;52.124;5.196;2023-07-08T13:19:42;33.50;89.70
20735;DHT22;10528;52.124;5.196;2023-07-08T13:22:21;33.40;90.20
20735;DHT22;10528;52.124;5.196;2023-07-08T13:25:00;33.40;90.30
20735;DHT22;10528;52.124;5.196;2023-07-08T13:27:29;33.30;88.60
20735;DHT22;10528;52.124;5.196;2023-07-08T13:32:48;33.20;88.60
20735;DHT22;10528;52.124;5.196;2023-07-08T13:35:38;33.30;85.80
20735;DHT22;10528;52.124;5.196;2023-07-08T13:38:17;33.30;89.50
20735;DHT22;10528;52.124;5.196;2023-07-08T13:40:59;33.20;87.70
20735;DHT22;10528;52.124;5.196;2023-07-08T13:43:31;33.20;82.60
20735;DHT22;10528;52.124;5.196;2023-07-08T13:45:59;33.20;88.60
20735;DHT22;10528;52.124;5.196;2023-07-08T13:48:30;33.10;89.00
20735;DHT22;10528;52.124;5.196;2023-07-08T13:51:09;33.10;85.70
20735;DHT22;10528;52.124;5.196;2023-07-08T13:56:38;32.90;84.50
20735;DHT22;10528;52.124;5.196;2023-07-08T13:59:11;32.70;85.70
20735;DHT22;10528;52.124;5.196;2023-07-08T14:01:44;32.90;85.90
20735;DHT22;10528;52.124;5.196;2023-07-08T14:04:14;32.80;85.90
20735;DHT22;10528;52.124;5.196;2023-07-08T14:06:44;32.90;88.20
20735;DHT22;10528;52.124;5.196;2023-07-08T14:09:14;32.80;87.10
20735;DHT22;10528;52.124;5.196;2023-07-08T14:11:47;32.90;89.10
20735;DHT22;10528;52.124;5.196;2023-07-08T14:14:17;32.90;90.50
20735;DHT22;10528;52.124;5.196;2023-07-08T14:16:54;32.90;90.70
20735;DHT22;10528;52.124;5.196;2023-07-08T14:19:32;32.80;91.20
20735;DHT22;10528;52.124;5.196;2023-07-08T14:24:42;32.70;91.20
20735;DHT22;10528;52.124;5.196;2023-07-08T14:27:10;32.70;90.70
20735;DHT22;10528;52.124;5.196;2023-07-08T14:29:40;32.60;92.40
20735;DHT22;10528;52.124;5.196;2023-07-08T14:32:14;32.50;91.40
20735;DHT22;10528;52.124;5.196;2023-07-08T14:34:56;32.40;91.10
20735;DHT22;10528;52.124;5.196;2023-07-08T14:37:25;32.40;91.70
20735;DHT22;10528;52.124;5.196;2023-07-08T14:39:52;32.30;92.30
20735;DHT22;10528;52.124;5.196;2023-07-08T14:42:20;32.40;94.40
20735;DHT22;10528;52.124;5.196;2023-07-08T14:44:50;32.60;94.50
20735;DHT22;10528;52.124;5.196;2023-07-08T14:47:20;32.60;93.20
20735;DHT22;10528;52.124;5.196;2023-07-08T14:49:47;32.50;93.30
20735;DHT22;10528;52.124;5.196;2023-07-08T14:52:15;32.50;93.40
20735;DHT22;10528;52.124;5.196;2023-07-08T14:54:42;32.40;93.50
20735;DHT22;10528;52.124;5.196;2023-07-08T14:57:12;32.30;92.80
20735;DHT22;10528;52.124;5.196;2023-07-08T14:59:43;32.20;93.50
20735;DHT22;10528;52.124;5.196;2023-07-08T15:02:18;32.40;94.20
20735;DHT22;10528;52.124;5.196;2023-07-08T15:04:47;32.40;94.80
20735;DHT22;10528;52.124;5.196;2023-07-08T15:07:14;32.50;94.90
20735;DHT22;10528;52.124;5.196;2023-07-08T15:09:41;32.40;95.40
20735;DHT22;10528;52.124;5.196;2023-07-08T15:12:10;32.40;95.40
20735;DHT22;10528;52.124;5.196;2023-07-08T15:14:39;32.50;95.70
20735;DHT22;10528;52.124;5.196;2023-07-08T15:17:15;32.70;96.20
20735;DHT22;10528;52.124;5.196;2023-07-08T15:19:46;32.50;96.50
20735;DHT22;10528;52.124;5.196;2023-07-08T15:22:13;32.50;94.10
20735;DHT22;10528;52.124;5.196;2023-07-08T15:24:40;32.60;95.30
20735;DHT22;10528;52.124;5.196;2023-07-08T15:27:10;32.50;94.50
20735;DHT22;10528;52.124;5.196;2023-07-08T15:29:39;32.40;95.20
20735;DHT22;10528;52.124;5.196;2023-07-08T15:32:12;32.50;95.40
20735;DHT22;10528;52.124;5.196;2023-07-08T15:35:07;32.40;95.70
20735;DHT22;10528;52.124;5.196;2023-07-08T15:37:38;32.40;95.10
20735;DHT22;10528;52.124;5.196;2023-07-08T15:40:06;32.40;95.10
20735;DHT22;10528;52.124;5.196;2023-07-08T15:42:35;32.30;95.50
20735;DHT22;10528;52.124;5.196;2023-07-08T15:45:13;32.20;95.40
20735;DHT22;10528;52.124;5.196;2023-07-08T15:47:41;32.10;96.00
20735;DHT22;10528;52.124;5.196;2023-07-08T15:50:11;32.10;96.00
20735;DHT22;10528;52.124;5.196;2023-07-08T15:52:39;32.00;95.30
20735;DHT22;10528;52.124;5.196;2023-07-08T15:55:08;32.00;95.50
20735;DHT22;10528;52.124;5.196;2023-07-08T15:57:49;32.00;95.90
20735;DHT22;10528;52.124;5.196;2023-07-08T16:00:31;32.00;94.40
20735;DHT22;10528;52.124;5.196;2023-07-08T16:03:03;32.00;94.60
20735;DHT22;10528;52.124;5.196;2023-07-08T16:05:34;31.90;96.00
20735;DHT22;10528;52.124;5.196;2023-07-08T16:08:03;31.90;96.20
20735;DHT22;10528;52.124;5.196;2023-07-08T16:10:31;31.90;96.90
20735;DHT22;10528;52.124;5.196;2023-07-08T16:12:58;31.90;96.70
20735;DHT22;10528;52.124;5.196;2023-07-08T16:15:32;31.90;96.90
20735;DHT22;10528;52.124;5.196;2023-07-08T16:18:01;32.00;96.60
20735;DHT22;10528;52.124;5.196;2023-07-08T16:20:30;32.10;96.60
20735;DHT22;10528;52.124;5.196;2023-07-08T16:22:59;32.00;96.20
20735;DHT22;10528;52.124;5.196;2023-07-08T16:25:29;32.10;96.50
20735;DHT22;10528;52.124;5.196;2023-07-08T16:27:59;32.10;96.00
20735;DHT22;10528;52.124;5.196;2023-07-08T16:30:27;32.10;96.40
20735;DHT22;10528;52.124;5.196;2023-07-08T16:32:55;32.10;97.30
20735;DHT22;10528;52.124;5.196;2023-07-08T16:35:23;32.10;97.80
20735;DHT22;10528;52.124;5.196;2023-07-08T16:37:52;32.10;98.50
20735;DHT22;10528;52.124;5.196;2023-07-08T16:40:22;32.10;98.20
20735;DHT22;10528;52.124;5.196;2023-07-08T16:42:56;32.10;98.50
20735;DHT22;10528;52.124;5.196;2023-07-08T16:45:24;32.10;97.90
20735;DHT22;10528;52.124;5.196;2023-07-08T16:47:53;32.10;98.90
20735;DHT22;10528;52.124;5.196;2023-07-08T16:50:26;32.10;97.90
20735;DHT22;10528;52.124;5.196;2023-07-08T16:52:54;32.10;98.80
20735;DHT22;10528;52.124;5.196;2023-07-08T16:55:21;32.10;99.20
20735;DHT22;10528;52.124;5.196;2023-07-08T16:57:49;32.20;98.40
20735;DHT22;10528;52.124;5.196;2023-07-08T17:00:19;32.10;98.90
20735;DHT22;10528;52.124;5.196;2023-07-08T17:02:47;32.10;99.00
20735;DHT22;10528;52.124;5.196;2023-07-08T17:05:23;32.10;99.20